sensor_id;sensor_type;location;lat;lon;timestamp;temperature;humidity
11855;DHT22;5987;53.140;8.904;2024-03-07T00:00:59;3.00;99.90
11855;DHT22;5987;53.140;8.904;2024-03-07T00:04:04;2.90;99.90
11855;DHT22;5987;53.140;8.904;2024-03-07T00:07:08;2.90;99.90
11855;DHT22;5987;53.140;8.904;2024-03-07T00:10:12;2.90;99.90
11855;DHT22;5987;53.140;8.904;2024-03-07T00:13:18;2.90;99.90
11855;DHT22;5987;53.140;8.904;2024-03-07T00:16:21;2.90;99.90
11855;DHT22;5987;53.140;8.904;2024-03-07T00:19:27;2.80;99.90
11855;DHT22;5987;53.140;8.904;2024-03-07T00:22:31;2.80;99.90
11855;DHT22;5987;53.140;8.904;2024-03-07T00:25:35;2.80;99.90
11855;DHT22;5987;53.140;8.904;2024-03-07T00:28:39;2.70;99.90
11855;DHT22;5987;53.140;8.904;2024-03-07T00:31:44;2.60;99.90
11855;DHT22;5987;53.140;8.904;2024-03-07T00:34:50;2.60;99.90
11855;DHT22;5987;53.140;8.904;2024-03-07T00:37:54;2.60;99.90
11855;DHT22;5987;53.140;8.904;2024-03-07T00:40:58;2.50;99.90
11855;DHT22;5987;53.140;8.904;2024-03-07T00:44:02;2.50;99.90
11855;DHT22;5987;53.140;8.904;2024-03-07T00:47:06;2.50;99.90
11855;DHT22;5987;53.140;8.904;2024-03-07T00:50:12;2.60;99.90
11855;DHT22;5987;53.140;8.904;2024-03-07T00:53:16;2.70;99.90
11855;DHT22;5987;53.140;8.904;2024-03-07T00:56:20;2.70;99.90
11855;DHT22;5987;53.140;8.904;2024-03-07T00:59:24;2.50;99.90
11855;DHT22;5987;53.140;8.904;2024-03-07T01:02:28;2.50;99.90
11855;DHT22;5987;53.140;8.904;2024-03-07T01:05:33;2.30;99.90
11855;DHT22;5987;53.140;8.904;2024-03-07T01:08:37;2.40;99.90
11855;DHT22;5987;53.140;8.904;2024-03-07T01:11:43;2.40;99.90
11855;DHT22;5987;53.140;8.904;2024-03-07T01:14:48;2.30;99.90
11855;DHT22;5987;53.140;8.904;2024-03-07T01:17:52;2.20;99.90
11855;DHT22;5987;53.140;8.904;2024-03-07T01:20:57;2.10;99.90
11855;DHT22;5987;53.140;8.904;2024-03-07T01:24:01;2.00;99.90
11855;DHT22;5987;53.140;8.904;2024-03-07T01:27:06;2.00;99.90
11855;DHT22;5987;53.140;8.904;2024-03-07T01:30:11;1.90;99.90
11855;DHT22;5987;53.140;8.904;2024-03-07T01:33:15;1.90;99.90
11855;DHT22;5987;53.140;8.904;2024-03-07T01:36:20;2.00;99.90
11855;DHT22;5987;53.140;8.904;2024-03-07T01:39:24;2.00;99.90
11855;DHT22;5987;53.140;8.904;2024-03-07T01:42:28;2.00;99.90
11855;DHT22;5987;53.140;8.904;2024-03-07T01:45:32;1.90;99.90
11855;DHT22;5987;53.140;8.904;2024-03-07T01:48:37;1.90;99.90
11855;DHT22;5987;53.140;8.904;2024-03-07T01:51:44;1.80;99.90
11855;DHT22;5987;53.140;8.904;2024-03-07T01:54:48;1.90;99.90
11855;DHT22;5987;53.140;8.904;2024-03-07T01:57:52;1.90;99.90
11855;DHT22;5987;53.140;8.904;2024-03-07T02:01:00;1.90;99.90
11855;DHT22;5987;53.140;8.904;2024-03-07T02:04:04;2.00;99.90
11855;DHT22;5987;53.140;8.904;2024-03-07T02:07:09;2.00;99.90
11855;DHT22;5987;53.140;8.904;2024-03-07T02:10:14;2.10;99.90
11855;DHT22;5987;53.140;8.904;2024-03-07T02:13:18;2.10;99.90
11855;DHT22;5987;53.140;8.904;2024-03-07T02:16:22;2.10;99.90
11855;DHT22;5987;53.140;8.904;2024-03-07T02:19:26;2.10;99.90
11855;DHT22;5987;53.140;8.904;2024-03-07T02:22:31;2.10;99.90
11855;DHT22;5987;53.140;8.904;2024-03-07T02:25:35;2.10;99.90
11855;DHT22;5987;53.140;8.904;2024-03-07T02:28:39;2.20;99.90
11855;DHT22;5987;53.140;8.904;2024-03-07T02:31:43;2.20;99.90
11855;DHT22;5987;53.140;8.904;2024-03-07T02:34:47;2.20;99.90
11855;DHT22;5987;53.140;8.904;2024-03-07T02:37:53;2.30;99.90
11855;DHT22;5987;53.140;8.904;2024-03-07T02:40:56;2.30;99.90
11855;DHT22;5987;53.140;8.904;2024-03-07T02:44:00;2.20;99.90
11855;DHT22;5987;53.140;8.904;2024-03-07T02:47:06;2.30;99.90
11855;DHT22;5987;53.140;8.904;2024-03-07T02:50:10;2.30;99.90
11855;DHT22;5987;53.140;8.904;2024-03-07T02:53:15;2.40;99.90
11855;DHT22;5987;53.140;8.904;2024-03-07T02:56:19;2.40;99.90
11855;DHT22;5987;53.140;8.904;2024-03-07T02:59:23;2.40;99.90
11855;DHT22;5987;53.140;8.904;2024-03-07T03:02:27;2.50;99.90
11855;DHT22;5987;53.140;8.904;2024-03-07T03:05:31;2.50;99.90
11855;DHT22;5987;53.140;8.904;2024-03-07T03:08:36;2.60;99.90
11855;DHT22;5987;53.140;8.904;2024-03-07T03:11:40;2.60;99.90
11855;DHT22;5987;53.140;8.904;2024-03-07T03:14:44;2.60;99.90
11855;DHT22;5987;53.140;8.904;2024-03-07T03:17:48;2.50;99.90
11855;DHT22;5987;53.140;8.904;2024-03-07T03:20:52;2.20;99.90
11855;DHT22;5987;53.140;8.904;2024-03-07T03:23:57;2.60;99.90
11855;DHT22;5987;53.140;8.904;2024-03-07T03:27:01;2.70;99.90
11855;DHT22;5987;53.140;8.904;2024-03-07T03:30:06;2.70;99.90
11855;DHT22;5987;53.140;8.904;2024-03-07T03:33:15;2.70;99.90
11855;DHT22;5987;53.140;8.904;2024-03-07T03:36:20;2.80;99.90
11855;DHT22;5987;53.140;8.904;2024-03-07T03:39:25;2.80;99.90
11855;DHT22;5987;53.140;8.904;2024-03-07T03:42:29;2.80;99.90
11855;DHT22;5987;53.140;8.904;2024-03-07T03:45:32;2.90;99.90
11855;DHT22;5987;53.140;8.904;2024-03-07T03:48:37;2.90;99.90
11855;DHT22;5987;53.140;8.904;2024-03-07T03:51:41;2.90;99.90
11855;DHT22;5987;53.140;8.904;2024-03-07T03:54:50;2.90;99.90
11855;DHT22;5987;53.140;8.904;2024-03-07T03:57:53;2.90;99.90
11855;DHT22;5987;53.140;8.904;2024-03-07T04:00:57;2.90;99.90
11855;DHT22;5987;53.140;8.904;2024-03-07T04:04:02;3.00;99.90
11855;DHT22;5987;53.140;8.904;2024-03-07T04:07:07;2.90;99.90
11855;DHT22;5987;53.140;8.904;2024-03-07T04:10:15;3.00;99.90
11855;DHT22;5987;53.140;8.904;2024-03-07T04:13:20;2.90;99.90
11855;DHT22;5987;53.140;8.904;2024-03-07T04:16:24;2.90;99.90
11855;DHT22;5987;53.140;8.904;2024-03-07T04:19:28;3.00;99.90
11855;DHT22;5987;53.140;8.904;2024-03-07T04:22:33;3.00;99.90
11855;DHT22;5987;53.140;8.904;2024-03-07T04:25:39;3.00;99.90
11855;DHT22;5987;53.140;8.904;2024-03-07T04:28:43;3.00;99.90
11855;DHT22;5987;53.140;8.904;2024-03-07T04:31:47;3.10;99.90
11855;DHT22;5987;53.140;8.904;2024-03-07T04:34:52;3.00;99.90
11855;DHT22;5987;53.140;8.904;2024-03-07T04:37:55;3.10;99.90
11855;DHT22;5987;53.140;8.904;2024-03-07T04:41:01;3.20;99.90
11855;DHT22;5987;53.140;8.904;2024-03-07T04:44:06;3.20;99.90
11855;DHT22;5987;53.140;8.904;2024-03-07T04:47:09;3.20;99.90
11855;DHT22;5987;53.140;8.904;2024-03-07T04:50:13;3.20;99.90
11855;DHT22;5987;53.140;8.904;2024-03-07T04:53:21;3.20;99.90
11855;DHT22;5987;53.140;8.904;2024-03-07T04:56:26;3.20;99.90
11855;DHT22;5987;53.140;8.904;2024-03-07T04:59:30;3.10;99.90
11855;DHT22;5987;53.140;8.904;2024-03-07T05:02:34;3.10;99.90
11855;DHT22;5987;53.140;8.904;2024-03-07T05:05:38;3.10;99.90
11855;DHT22;5987;53.140;8.904;2024-03-07T05:08:43;3.20;99.90
11855;DHT22;5987;53.140;8.904;2024-03-07T05:11:51;3.30;99.90
11855;DHT22;5987;53.140;8.904;2024-03-07T05:14:56;3.40;99.90
11855;DHT22;5987;53.140;8.904;2024-03-07T05:18:00;3.40;99.90
11855;DHT22;5987;53.140;8.904;2024-03-07T05:21:04;3.40;99.90
11855;DHT22;5987;53.140;8.904;2024-03-07T05:24:22;3.50;99.90
11855;DHT22;5987;53.140;8.904;2024-03-07T05:27:27;3.60;99.90
11855;DHT22;5987;53.140;8.904;2024-03-07T05:30:32;3.70;99.90
11855;DHT22;5987;53.140;8.904;2024-03-07T05:33:36;3.70;99.90
11855;DHT22;5987;53.140;8.904;2024-03-07T05:36:40;3.70;99.90
11855;DHT22;5987;53.140;8.904;2024-03-07T05:39:47;3.70;99.90
11855;DHT22;5987;53.140;8.904;2024-03-07T05:42:52;3.80;99.90
11855;DHT22;5987;53.140;8.904;2024-03-07T05:45:57;3.70;99.90
11855;DHT22;5987;53.140;8.904;2024-03-07T05:49:02;3.70;99.90
11855;DHT22;5987;53.140;8.904;2024-03-07T05:52:07;3.80;99.90
11855;DHT22;5987;53.140;8.904;2024-03-07T05:55:11;3.90;99.90
11855;DHT22;5987;53.140;8.904;2024-03-07T05:58:16;3.90;99.90
11855;DHT22;5987;53.140;8.904;2024-03-07T06:01:21;4.00;99.90
11855;DHT22;5987;53.140;8.904;2024-03-07T06:04:27;4.00;99.90
11855;DHT22;5987;53.140;8.904;2024-03-07T06:07:31;4.00;99.90
11855;DHT22;5987;53.140;8.904;2024-03-07T06:10:35;4.00;99.90
11855;DHT22;5987;53.140;8.904;2024-03-07T06:13:40;4.20;99.90
11855;DHT22;5987;53.140;8.904;2024-03-07T06:16:44;4.10;99.90
11855;DHT22;5987;53.140;8.904;2024-03-07T06:19:48;4.20;99.90
11855;DHT22;5987;53.140;8.904;2024-03-07T06:22:52;4.20;99.90
11855;DHT22;5987;53.140;8.904;2024-03-07T06:25:55;4.20;99.90
11855;DHT22;5987;53.140;8.904;2024-03-07T06:29:03;4.30;99.90
11855;DHT22;5987;53.140;8.904;2024-03-07T06:32:08;4.40;99.90
11855;DHT22;5987;53.140;8.904;2024-03-07T06:35:12;4.40;99.90
11855;DHT22;5987;53.140;8.904;2024-03-07T06:38:18;4.30;99.90
11855;DHT22;5987;53.140;8.904;2024-03-07T06:41:23;4.40;99.90
11855;DHT22;5987;53.140;8.904;2024-03-07T06:44:29;4.40;99.90
11855;DHT22;5987;53.140;8.904;2024-03-07T06:47:33;4.40;99.90
11855;DHT22;5987;53.140;8.904;2024-03-07T06:50:37;4.40;99.90
11855;DHT22;5987;53.140;8.904;2024-03-07T06:53:41;4.50;99.90
11855;DHT22;5987;53.140;8.904;2024-03-07T06:56:45;4.50;99.90
11855;DHT22;5987;53.140;8.904;2024-03-07T06:59:50;4.60;99.90
11855;DHT22;5987;53.140;8.904;2024-03-07T07:02:54;4.70;99.90
11855;DHT22;5987;53.140;8.904;2024-03-07T07:05:58;4.70;99.90
11855;DHT22;5987;53.140;8.904;2024-03-07T07:09:03;4.70;99.90
11855;DHT22;5987;53.140;8.904;2024-03-07T07:12:08;4.80;99.90
11855;DHT22;5987;53.140;8.904;2024-03-07T07:15:30;4.80;99.90
11855;DHT22;5987;53.140;8.904;2024-03-07T07:18:34;4.90;99.90
11855;DHT22;5987;53.140;8.904;2024-03-07T07:21:39;4.80;99.90
11855;DHT22;5987;53.140;8.904;2024-03-07T07:24:44;4.90;99.90
11855;DHT22;5987;53.140;8.904;2024-03-07T07:27:49;4.90;99.90
11855;DHT22;5987;53.140;8.904;2024-03-07T07:30:56;4.90;99.90
11855;DHT22;5987;53.140;8.904;2024-03-07T07:34:00;5.00;99.90
11855;DHT22;5987;53.140;8.904;2024-03-07T07:37:06;5.00;99.90
11855;DHT22;5987;53.140;8.904;2024-03-07T07:40:14;5.00;99.90
11855;DHT22;5987;53.140;8.904;2024-03-07T07:43:20;5.00;99.90
11855;DHT22;5987;53.140;8.904;2024-03-07T07:46:40;5.00;99.90
11855;DHT22;5987;53.140;8.904;2024-03-07T07:49:44;5.00;99.90
11855;DHT22;5987;53.140;8.904;2024-03-07T07:52:48;5.00;99.90
11855;DHT22;5987;53.140;8.904;2024-03-07T07:55:53;5.10;99.90
11855;DHT22;5987;53.140;8.904;2024-03-07T07:58:57;5.20;99.90
11855;DHT22;5987;53.140;8.904;2024-03-07T08:02:02;5.10;99.90
11855;DHT22;5987;53.140;8.904;2024-03-07T08:05:08;5.20;99.90
11855;DHT22;5987;53.140;8.904;2024-03-07T08:08:12;5.30;99.90
11855;DHT22;5987;53.140;8.904;2024-03-07T08:11:19;5.30;99.90
11855;DHT22;5987;53.140;8.904;2024-03-07T08:14:22;5.30;99.90
11855;DHT22;5987;53.140;8.904;2024-03-07T08:17:32;5.40;99.90
11855;DHT22;5987;53.140;8.904;2024-03-07T08:20:36;5.40;99.90
11855;DHT22;5987;53.140;8.904;2024-03-07T08:23:41;5.60;99.90
11855;DHT22;5987;53.140;8.904;2024-03-07T08:26:46;5.70;99.90
11855;DHT22;5987;53.140;8.904;2024-03-07T08:29:50;5.80;99.90
11855;DHT22;5987;53.140;8.904;2024-03-07T08:32:56;5.70;99.90
11855;DHT22;5987;53.140;8.904;2024-03-07T08:36:01;5.80;99.90
11855;DHT22;5987;53.140;8.904;2024-03-07T08:39:05;5.80;99.90
11855;DHT22;5987;53.140;8.904;2024-03-07T08:42:13;5.70;99.90
11855;DHT22;5987;53.140;8.904;2024-03-07T08:45:19;5.70;99.90
11855;DHT22;5987;53.140;8.904;2024-03-07T08:48:25;5.70;99.90
11855;DHT22;5987;53.140;8.904;2024-03-07T08:51:29;5.70;99.90
11855;DHT22;5987;53.140;8.904;2024-03-07T08:54:33;5.70;99.90
11855;DHT22;5987;53.140;8.904;2024-03-07T08:57:37;5.70;99.90
11855;DHT22;5987;53.140;8.904;2024-03-07T09:00:41;5.80;99.90
11855;DHT22;5987;53.140;8.904;2024-03-07T09:03:48;5.90;99.90
11855;DHT22;5987;53.140;8.904;2024-03-07T09:06:52;6.00;99.90
11855;DHT22;5987;53.140;8.904;2024-03-07T09:09:56;6.00;99.90
11855;DHT22;5987;53.140;8.904;2024-03-07T09:13:00;6.10;99.90
11855;DHT22;5987;53.140;8.904;2024-03-07T09:16:05;6.10;99.90
11855;DHT22;5987;53.140;8.904;2024-03-07T09:19:10;6.00;99.90
11855;DHT22;5987;53.140;8.904;2024-03-07T09:22:16;6.00;99.90
11855;DHT22;5987;53.140;8.904;2024-03-07T09:25:20;6.00;99.90
11855;DHT22;5987;53.140;8.904;2024-03-07T09:28:25;6.00;99.90
11855;DHT22;5987;53.140;8.904;2024-03-07T09:31:29;6.00;99.90
11855;DHT22;5987;53.140;8.904;2024-03-07T09:34:35;6.00;99.90
11855;DHT22;5987;53.140;8.904;2024-03-07T09:37:40;6.00;99.90
11855;DHT22;5987;53.140;8.904;2024-03-07T09:40:46;6.00;99.90
11855;DHT22;5987;53.140;8.904;2024-03-07T09:43:52;5.90;99.90
11855;DHT22;5987;53.140;8.904;2024-03-07T09:46:58;6.00;99.90
11855;DHT22;5987;53.140;8.904;2024-03-07T09:50:06;6.10;99.90
11855;DHT22;5987;53.140;8.904;2024-03-07T09:53:11;6.00;99.90
11855;DHT22;5987;53.140;8.904;2024-03-07T09:56:17;6.10;99.90
11855;DHT22;5987;53.140;8.904;2024-03-07T09:59:24;6.10;99.90
11855;DHT22;5987;53.140;8.904;2024-03-07T10:02:32;6.10;99.90
11855;DHT22;5987;53.140;8.904;2024-03-07T10:05:45;5.90;99.90
11855;DHT22;5987;53.140;8.904;2024-03-07T10:08:50;5.90;99.90
11855;DHT22;5987;53.140;8.904;2024-03-07T10:11:57;5.90;99.90
11855;DHT22;5987;53.140;8.904;2024-03-07T10:15:04;5.90;99.90
11855;DHT22;5987;53.140;8.904;2024-03-07T10:18:08;5.90;99.90
11855;DHT22;5987;53.140;8.904;2024-03-07T10:21:14;6.00;99.90
11855;DHT22;5987;53.140;8.904;2024-03-07T10:24:24;6.00;99.90
11855;DHT22;5987;53.140;8.904;2024-03-07T10:27:29;6.10;99.90
11855;DHT22;5987;53.140;8.904;2024-03-07T10:30:40;6.10;99.90
11855;DHT22;5987;53.140;8.904;2024-03-07T10:33:46;6.10;99.90
11855;DHT22;5987;53.140;8.904;2024-03-07T10:36:52;6.00;99.90
11855;DHT22;5987;53.140;8.904;2024-03-07T10:39:56;6.00;99.90
11855;DHT22;5987;53.140;8.904;2024-03-07T10:43:00;5.90;99.90
11855;DHT22;5987;53.140;8.904;2024-03-07T10:46:12;6.00;99.90
11855;DHT22;5987;53.140;8.904;2024-03-07T10:49:17;6.10;99.90
11855;DHT22;5987;53.140;8.904;2024-03-07T10:52:29;6.20;99.90
11855;DHT22;5987;53.140;8.904;2024-03-07T10:55:49;6.30;99.90
11855;DHT22;5987;53.140;8.904;2024-03-07T10:59:10;6.30;99.90
11855;DHT22;5987;53.140;8.904;2024-03-07T11:02:27;6.30;99.90
11855;DHT22;5987;53.140;8.904;2024-03-07T11:05:37;6.50;99.90
11855;DHT22;5987;53.140;8.904;2024-03-07T11:08:44;6.40;99.90
11855;DHT22;5987;53.140;8.904;2024-03-07T11:11:48;6.30;99.90
11855;DHT22;5987;53.140;8.904;2024-03-07T11:14:53;6.30;99.90
11855;DHT22;5987;53.140;8.904;2024-03-07T11:17:59;6.20;99.90
11855;DHT22;5987;53.140;8.904;2024-03-07T11:21:03;6.10;99.90
11855;DHT22;5987;53.140;8.904;2024-03-07T11:24:22;6.00;99.90
11855;DHT22;5987;53.140;8.904;2024-03-07T11:27:28;5.90;99.90
11855;DHT22;5987;53.140;8.904;2024-03-07T11:30:32;5.80;99.90
11855;DHT22;5987;53.140;8.904;2024-03-07T11:33:37;5.80;99.90
11855;DHT22;5987;53.140;8.904;2024-03-07T11:36:44;5.70;99.90
11855;DHT22;5987;53.140;8.904;2024-03-07T11:39:50;5.70;99.90
11855;DHT22;5987;53.140;8.904;2024-03-07T11:42:58;5.70;99.90
11855;DHT22;5987;53.140;8.904;2024-03-07T11:46:08;5.80;99.90
11855;DHT22;5987;53.140;8.904;2024-03-07T11:49:13;5.80;99.90
11855;DHT22;5987;53.140;8.904;2024-03-07T11:52:18;5.80;99.90
11855;DHT22;5987;53.140;8.904;2024-03-07T11:55:24;5.80;99.90
11855;DHT22;5987;53.140;8.904;2024-03-07T11:58:30;5.90;99.90
11855;DHT22;5987;53.140;8.904;2024-03-07T12:01:35;6.00;99.90
11855;DHT22;5987;53.140;8.904;2024-03-07T12:04:39;6.00;99.90
11855;DHT22;5987;53.140;8.904;2024-03-07T12:07:43;5.90;99.90
11855;DHT22;5987;53.140;8.904;2024-03-07T12:10:49;6.00;99.90
11855;DHT22;5987;53.140;8.904;2024-03-07T12:13:56;6.00;99.90
11855;DHT22;5987;53.140;8.904;2024-03-07T12:17:01;6.20;99.90
11855;DHT22;5987;53.140;8.904;2024-03-07T12:20:07;6.20;99.90
11855;DHT22;5987;53.140;8.904;2024-03-07T12:23:27;6.30;99.90
11855;DHT22;5987;53.140;8.904;2024-03-07T12:26:32;6.30;99.90
11855;DHT22;5987;53.140;8.904;2024-03-07T12:29:36;6.40;99.90
11855;DHT22;5987;53.140;8.904;2024-03-07T12:32:47;6.40;99.90
11855;DHT22;5987;53.140;8.904;2024-03-07T12:35:53;6.40;99.90
11855;DHT22;5987;53.140;8.904;2024-03-07T12:39:03;6.30;99.90
11855;DHT22;5987;53.140;8.904;2024-03-07T12:42:23;6.40;99.90
11855;DHT22;5987;53.140;8.904;2024-03-07T12:45:28;6.50;99.90
11855;DHT22;5987;53.140;8.904;2024-03-07T12:48:35;6.50;99.90
11855;DHT22;5987;53.140;8.904;2024-03-07T12:51:41;6.40;99.90
11855;DHT22;5987;53.140;8.904;2024-03-07T12:54:45;6.40;99.90
11855;DHT22;5987;53.140;8.904;2024-03-07T12:57:51;6.50;99.90
11855;DHT22;5987;53.140;8.904;2024-03-07T13:00:57;6.40;99.90
11855;DHT22;5987;53.140;8.904;2024-03-07T13:04:02;6.40;99.90
11855;DHT22;5987;53.140;8.904;2024-03-07T13:07:06;6.40;99.90
11855;DHT22;5987;53.140;8.904;2024-03-07T13:10:11;6.40;99.90
11855;DHT22;5987;53.140;8.904;2024-03-07T13:13:18;6.50;99.90
11855;DHT22;5987;53.140;8.904;2024-03-07T13:16:22;6.40;99.90
11855;DHT22;5987;53.140;8.904;2024-03-07T13:19:32;6.40;99.90
11855;DHT22;5987;53.140;8.904;2024-03-07T13:22:37;6.40;99.90
11855;DHT22;5987;53.140;8.904;2024-03-07T13:25:45;6.40;99.90
11855;DHT22;5987;53.140;8.904;2024-03-07T13:28:53;6.40;99.90
11855;DHT22;5987;53.140;8.904;2024-03-07T13:31:57;6.40;99.90
11855;DHT22;5987;53.140;8.904;2024-03-07T13:35:02;6.40;99.90
11855;DHT22;5987;53.140;8.904;2024-03-07T13:38:06;6.40;99.90
11855;DHT22;5987;53.140;8.904;2024-03-07T13:41:11;6.30;99.90
11855;DHT22;5987;53.140;8.904;2024-03-07T13:44:16;6.30;99.90
11855;DHT22;5987;53.140;8.904;2024-03-07T13:47:21;6.30;99.90
11855;DHT22;5987;53.140;8.904;2024-03-07T13:50:27;6.30;99.90
11855;DHT22;5987;53.140;8.904;2024-03-07T13:53:54;6.20;99.90
11855;DHT22;5987;53.140;8.904;2024-03-07T13:57:26;6.20;99.90
11855;DHT22;5987;53.140;8.904;2024-03-07T14:00:47;6.10;99.90
11855;DHT22;5987;53.140;8.904;2024-03-07T14:12:58;6.20;99.90
11855;DHT22;5987;53.140;8.904;2024-03-07T14:16:40;6.20;99.90
11855;DHT22;5987;53.140;8.904;2024-03-07T14:24:14;6.10;99.90
11855;DHT22;5987;53.140;8.904;2024-03-07T14:28:11;6.10;99.90
11855;DHT22;5987;53.140;8.904;2024-03-07T14:31:22;6.00;99.90
11855;DHT22;5987;53.140;8.904;2024-03-07T14:34:37;6.10;99.90
11855;DHT22;5987;53.140;8.904;2024-03-07T14:37:54;6.20;99.90
11855;DHT22;5987;53.140;8.904;2024-03-07T14:41:04;6.20;99.90
11855;DHT22;5987;53.140;8.904;2024-03-07T14:44:10;6.10;99.90
11855;DHT22;5987;53.140;8.904;2024-03-07T14:47:19;6.20;99.90
11855;DHT22;5987;53.140;8.904;2024-03-07T14:50:25;6.20;99.90
11855;DHT22;5987;53.140;8.904;2024-03-07T14:53:32;6.30;99.90
11855;DHT22;5987;53.140;8.904;2024-03-07T14:56:36;6.30;99.90
11855;DHT22;5987;53.140;8.904;2024-03-07T14:59:40;6.30;99.90
11855;DHT22;5987;53.140;8.904;2024-03-07T15:02:48;6.30;99.90
11855;DHT22;5987;53.140;8.904;2024-03-07T15:05:53;6.30;99.90
11855;DHT22;5987;53.140;8.904;2024-03-07T15:08:57;6.30;99.90
11855;DHT22;5987;53.140;8.904;2024-03-07T15:12:01;6.30;99.90
11855;DHT22;5987;53.140;8.904;2024-03-07T15:15:25;6.30;99.90
11855;DHT22;5987;53.140;8.904;2024-03-07T15:18:34;6.30;99.90
11855;DHT22;5987;53.140;8.904;2024-03-07T15:21:38;6.40;99.90
11855;DHT22;5987;53.140;8.904;2024-03-07T15:24:43;6.50;99.90
11855;DHT22;5987;53.140;8.904;2024-03-07T15:27:47;6.50;99.90
11855;DHT22;5987;53.140;8.904;2024-03-07T15:30:51;6.50;99.90
11855;DHT22;5987;53.140;8.904;2024-03-07T15:33:57;6.60;99.90
11855;DHT22;5987;53.140;8.904;2024-03-07T15:37:01;6.60;99.90
11855;DHT22;5987;53.140;8.904;2024-03-07T15:40:06;6.60;99.90
11855;DHT22;5987;53.140;8.904;2024-03-07T15:43:14;6.50;99.90
11855;DHT22;5987;53.140;8.904;2024-03-07T15:46:17;6.60;99.90
11855;DHT22;5987;53.140;8.904;2024-03-07T15:49:23;6.70;99.90
11855;DHT22;5987;53.140;8.904;2024-03-07T15:52:27;6.70;99.90
11855;DHT22;5987;53.140;8.904;2024-03-07T15:55:33;6.60;99.90
11855;DHT22;5987;53.140;8.904;2024-03-07T15:58:37;6.60;99.90
11855;DHT22;5987;53.140;8.904;2024-03-07T16:01:41;6.60;99.90
11855;DHT22;5987;53.140;8.904;2024-03-07T16:04:48;6.60;99.90
11855;DHT22;5987;53.140;8.904;2024-03-07T16:07:53;6.60;99.90
11855;DHT22;5987;53.140;8.904;2024-03-07T16:10:58;6.60;99.90
11855;DHT22;5987;53.140;8.904;2024-03-07T16:14:02;6.50;99.90
11855;DHT22;5987;53.140;8.904;2024-03-07T16:17:07;6.50;99.90
11855;DHT22;5987;53.140;8.904;2024-03-07T16:20:12;6.40;99.90
11855;DHT22;5987;53.140;8.904;2024-03-07T16:23:16;6.50;99.90
11855;DHT22;5987;53.140;8.904;2024-03-07T16:26:20;6.40;99.90
11855;DHT22;5987;53.140;8.904;2024-03-07T16:29:24;6.50;99.90
11855;DHT22;5987;53.140;8.904;2024-03-07T16:32:28;6.40;99.90
11855;DHT22;5987;53.140;8.904;2024-03-07T16:35:33;6.40;99.90
11855;DHT22;5987;53.140;8.904;2024-03-07T16:38:37;6.40;99.90
11855;DHT22;5987;53.140;8.904;2024-03-07T16:41:41;6.30;99.90
11855;DHT22;5987;53.140;8.904;2024-03-07T16:44:45;6.30;99.90
11855;DHT22;5987;53.140;8.904;2024-03-07T16:47:50;6.30;99.90
11855;DHT22;5987;53.140;8.904;2024-03-07T16:50:57;6.20;99.90
11855;DHT22;5987;53.140;8.904;2024-03-07T16:54:01;6.10;99.90
11855;DHT22;5987;53.140;8.904;2024-03-07T16:57:07;6.00;99.90
11855;DHT22;5987;53.140;8.904;2024-03-07T17:00:12;6.00;99.90
11855;DHT22;5987;53.140;8.904;2024-03-07T17:03:27;6.00;99.90
11855;DHT22;5987;53.140;8.904;2024-03-07T17:06:33;5.90;99.90
11855;DHT22;5987;53.140;8.904;2024-03-07T17:09:37;5.90;99.90
11855;DHT22;5987;53.140;8.904;2024-03-07T17:12:44;5.90;99.90
11855;DHT22;5987;53.140;8.904;2024-03-07T17:15:50;5.70;99.90
11855;DHT22;5987;53.140;8.904;2024-03-07T17:18:59;5.70;99.90
11855;DHT22;5987;53.140;8.904;2024-03-07T17:22:06;5.70;99.90
11855;DHT22;5987;53.140;8.904;2024-03-07T17:25:10;5.60;99.90
11855;DHT22;5987;53.140;8.904;2024-03-07T17:28:18;5.50;99.90
11855;DHT22;5987;53.140;8.904;2024-03-07T17:31:22;5.50;99.90
11855;DHT22;5987;53.140;8.904;2024-03-07T17:34:26;5.40;99.90
11855;DHT22;5987;53.140;8.904;2024-03-07T17:37:33;5.30;99.90
11855;DHT22;5987;53.140;8.904;2024-03-07T17:40:39;5.30;99.90
11855;DHT22;5987;53.140;8.904;2024-03-07T17:43:45;5.30;99.90
11855;DHT22;5987;53.140;8.904;2024-03-07T17:46:49;5.20;99.90
11855;DHT22;5987;53.140;8.904;2024-03-07T17:49:52;5.10;99.90
11855;DHT22;5987;53.140;8.904;2024-03-07T17:52:59;5.10;99.90
11855;DHT22;5987;53.140;8.904;2024-03-07T17:56:05;5.10;99.90
11855;DHT22;5987;53.140;8.904;2024-03-07T17:59:09;5.00;99.90
11855;DHT22;5987;53.140;8.904;2024-03-07T18:02:18;4.90;99.90
11855;DHT22;5987;53.140;8.904;2024-03-07T18:05:23;4.90;99.90
11855;DHT22;5987;53.140;8.904;2024-03-07T18:08:29;4.90;99.90
11855;DHT22;5987;53.140;8.904;2024-03-07T18:11:47;4.80;99.90
11855;DHT22;5987;53.140;8.904;2024-03-07T18:14:50;4.70;99.90
11855;DHT22;5987;53.140;8.904;2024-03-07T18:18:14;4.70;99.90
11855;DHT22;5987;53.140;8.904;2024-03-07T18:21:19;4.70;99.90
11855;DHT22;5987;53.140;8.904;2024-03-07T18:24:25;4.60;99.90
11855;DHT22;5987;53.140;8.904;2024-03-07T18:27:29;4.50;99.90
11855;DHT22;5987;53.140;8.904;2024-03-07T18:30:36;4.50;99.90
11855;DHT22;5987;53.140;8.904;2024-03-07T18:33:40;4.40;99.90
11855;DHT22;5987;53.140;8.904;2024-03-07T18:36:45;4.40;99.90
11855;DHT22;5987;53.140;8.904;2024-03-07T18:39:51;4.30;99.90
11855;DHT22;5987;53.140;8.904;2024-03-07T18:42:57;4.20;99.90
11855;DHT22;5987;53.140;8.904;2024-03-07T18:46:01;4.20;99.90
11855;DHT22;5987;53.140;8.904;2024-03-07T18:49:05;4.20;99.90
11855;DHT22;5987;53.140;8.904;2024-03-07T18:52:15;4.10;99.90
11855;DHT22;5987;53.140;8.904;2024-03-07T18:55:21;4.10;99.90
11855;DHT22;5987;53.140;8.904;2024-03-07T18:58:31;4.00;99.90
11855;DHT22;5987;53.140;8.904;2024-03-07T19:01:35;4.00;99.90
11855;DHT22;5987;53.140;8.904;2024-03-07T19:04:39;4.10;99.90
11855;DHT22;5987;53.140;8.904;2024-03-07T19:07:46;4.10;99.90
11855;DHT22;5987;53.140;8.904;2024-03-07T19:10:52;4.10;99.90
11855;DHT22;5987;53.140;8.904;2024-03-07T19:14:00;4.10;99.90
11855;DHT22;5987;53.140;8.904;2024-03-07T19:17:04;4.00;99.90
11855;DHT22;5987;53.140;8.904;2024-03-07T19:20:14;4.00;99.90
11855;DHT22;5987;53.140;8.904;2024-03-07T19:23:20;3.90;99.90
11855;DHT22;5987;53.140;8.904;2024-03-07T19:26:28;3.90;99.90
11855;DHT22;5987;53.140;8.904;2024-03-07T19:29:32;3.90;99.90
11855;DHT22;5987;53.140;8.904;2024-03-07T19:32:36;3.90;99.90
11855;DHT22;5987;53.140;8.904;2024-03-07T19:35:44;3.80;99.90
11855;DHT22;5987;53.140;8.904;2024-03-07T19:38:50;3.80;99.90
11855;DHT22;5987;53.140;8.904;2024-03-07T19:41:55;3.70;99.90
11855;DHT22;5987;53.140;8.904;2024-03-07T19:45:10;3.70;99.90
11855;DHT22;5987;53.140;8.904;2024-03-07T19:48:16;3.70;99.90
11855;DHT22;5987;53.140;8.904;2024-03-07T19:51:23;3.60;99.90
11855;DHT22;5987;53.140;8.904;2024-03-07T19:54:28;3.60;99.90
11855;DHT22;5987;53.140;8.904;2024-03-07T19:57:34;3.70;99.90
11855;DHT22;5987;53.140;8.904;2024-03-07T20:00:38;3.70;99.90
11855;DHT22;5987;53.140;8.904;2024-03-07T20:03:47;3.70;99.90
11855;DHT22;5987;53.140;8.904;2024-03-07T20:06:51;3.60;99.90
11855;DHT22;5987;53.140;8.904;2024-03-07T20:09:55;3.60;99.90
11855;DHT22;5987;53.140;8.904;2024-03-07T20:13:01;3.60;99.90
11855;DHT22;5987;53.140;8.904;2024-03-07T20:16:05;3.60;99.90
11855;DHT22;5987;53.140;8.904;2024-03-07T20:19:10;3.60;99.90
11855;DHT22;5987;53.140;8.904;2024-03-07T20:22:15;3.70;99.90
11855;DHT22;5987;53.140;8.904;2024-03-07T20:25:22;3.70;99.90
11855;DHT22;5987;53.140;8.904;2024-03-07T20:28:31;3.70;99.90